sensor_id;sensor_type;location;lat;lon;timestamp;pressure;altitude;pressure_sealevel;temperature;humidity
31775;BME280;66189;49.000;11.640;2023-04-08T00:00:45;96010.88;;;4.01;70.03
31775;BME280;66189;49.000;11.640;2023-04-08T00:02:45;96006.66;;;4.00;69.50
31775;BME280;66189;49.000;11.640;2023-04-08T00:04:46;96007.75;;;3.99;70.67
31775;BME280;66189;49.000;11.640;2023-04-08T00:06:46;96007.59;;;3.95;71.04
31775;BME280;66189;49.000;11.640;2023-04-08T00:08:47;96011.81;;;3.96;71.21
31775;BME280;66189;49.000;11.640;2023-04-08T00:10:47;96009.16;;;3.96;72.21
31775;BME280;66189;49.000;11.640;2023-04-08T00:12:47;96009.31;;;3.91;72.51
31775;BME280;66189;49.000;11.640;2023-04-08T00:14:47;96007.91;;;3.85;72.87
31775;BME280;66189;49.000;11.640;2023-04-08T00:16:48;96008.84;;;3.80;73.33
31775;BME280;66189;49.000;11.640;2023-04-08T00:18:48;96009.00;;;3.84;72.87
31775;BME280;66189;49.000;11.640;2023-04-08T00:20:48;96005.41;;;3.80;72.94
31775;BME280;66189;49.000;11.640;2023-04-08T00:22:49;96012.28;;;3.81;72.91
31775;BME280;66189;49.000;11.640;2023-04-08T00:24:49;96009.00;;;3.84;72.84
31775;BME280;66189;49.000;11.640;2023-04-08T00:26:49;96013.22;;;3.85;72.78
31775;BME280;66189;49.000;11.640;2023-04-08T00:28:50;96009.00;;;3.84;73.29
31775;BME280;66189;49.000;11.640;2023-04-08T00:30:51;96010.09;;;3.83;73.71
31775;BME280;66189;49.000;11.640;2023-04-08T00:32:51;96011.50;;;3.80;73.56
31775;BME280;66189;49.000;11.640;2023-04-08T00:34:52;96007.44;;;3.83;73.79
31775;BME280;66189;49.000;11.640;2023-04-08T00:36:52;96019.19;;;3.82;73.54
31775;BME280;66189;49.000;11.640;2023-04-08T00:38:52;96015.25;;;3.79;74.26
31775;BME280;66189;49.000;11.640;2023-04-08T00:40:53;96012.78;;;3.83;73.76
31775;BME280;66189;49.000;11.640;2023-04-08T00:42:55;96018.09;;;3.83;73.29
31775;BME280;66189;49.000;11.640;2023-04-08T00:44:55;96022.44;;;3.70;74.05
31775;BME280;66189;49.000;11.640;2023-04-08T00:46:56;96022.44;;;3.70;74.50
31775;BME280;66189;49.000;11.640;2023-04-08T00:48:56;96024.94;;;3.66;74.97
31775;BME280;66189;49.000;11.640;2023-04-08T00:50:57;96027.13;;;3.64;74.62
31775;BME280;66189;49.000;11.640;2023-04-08T00:52:57;96024.94;;;3.66;74.26
31775;BME280;66189;49.000;11.640;2023-04-08T00:54:57;96029.47;;;3.66;73.70
31775;BME280;66189;49.000;11.640;2023-04-08T00:56:58;96030.44;;;3.70;73.48
31775;BME280;66189;49.000;11.640;2023-04-08T00:59:01;96029.03;;;3.72;73.43
31775;BME280;66189;49.000;11.640;2023-04-08T01:01:04;96028.72;;;3.74;72.76
31775;BME280;66189;49.000;11.640;2023-04-08T01:03:30;96037.16;;;3.76;72.92
31775;BME280;66189;49.000;11.640;2023-04-08T01:07:26;96032.34;;;3.78;72.53
31775;BME280;66189;49.000;11.640;2023-04-08T01:09:29;96031.22;;;3.79;72.69
31775;BME280;66189;49.000;11.640;2023-04-08T01:11:29;96027.63;;;3.75;72.39
31775;BME280;66189;49.000;11.640;2023-04-08T01:13:33;96026.53;;;3.76;71.99
31775;BME280;66189;49.000;11.640;2023-04-08T01:15:37;96031.22;;;3.79;71.60
31775;BME280;66189;49.000;11.640;2023-04-08T01:17:41;96020.44;;;3.84;71.04
31775;BME280;66189;49.000;11.640;2023-04-08T01:19:42;96028.56;;;3.88;70.80
31775;BME280;66189;49.000;11.640;2023-04-08T01:21:45;96027.16;;;3.82;71.05
31775;BME280;66189;49.000;11.640;2023-04-08T01:23:53;96031.41;;;3.83;70.59
31775;BME280;66189;49.000;11.640;2023-04-08T01:25:59;96028.75;;;3.83;70.60
31775;BME280;66189;49.000;11.640;2023-04-08T01:28:00;96036.22;;;3.81;69.91
31775;BME280;66189;49.000;11.640;2023-04-08T01:30:03;96029.81;;;3.82;69.63
31775;BME280;66189;49.000;11.640;2023-04-08T01:32:04;96029.19;;;3.85;69.49
31775;BME280;66189;49.000;11.640;2023-04-08T01:34:06;96031.09;;;3.84;69.61
31775;BME280;66189;49.000;11.640;2023-04-08T01:36:06;96029.66;;;3.87;68.85
31775;BME280;66189;49.000;11.640;2023-04-08T01:38:13;96023.56;;;3.86;68.26
31775;BME280;66189;49.000;11.640;2023-04-08T01:40:13;96022.16;;;3.89;67.77
31775;BME280;66189;49.000;11.640;2023-04-08T01:42:14;96012.91;;;3.86;67.83
31775;BME280;66189;49.000;11.640;2023-04-08T01:44:15;96021.69;;;3.87;67.92
31775;BME280;66189;49.000;11.640;2023-04-08T01:46:15;96014.31;;;3.84;67.60
31775;BME280;66189;49.000;11.640;2023-04-08T01:48:16;96021.22;;;3.85;68.21
31775;BME280;66189;49.000;11.640;2023-04-08T01:50:16;96016.22;;;3.83;68.21
31775;BME280;66189;49.000;11.640;2023-04-08T01:52:17;96019.34;;;3.85;68.25
31775;BME280;66189;49.000;11.640;2023-04-08T01:54:19;96010.25;;;3.86;68.01
31775;BME280;66189;49.000;11.640;2023-04-08T01:56:20;96009.00;;;3.84;68.71
31775;BME280;66189;49.000;11.640;2023-04-08T01:58:21;96010.09;;;3.83;68.60
31775;BME280;66189;49.000;11.640;2023-04-08T02:00:29;96009.94;;;3.88;68.95
31775;BME280;66189;49.000;11.640;2023-04-08T02:02:30;96010.56;;;3.85;69.08
31775;BME280;66189;49.000;11.640;2023-04-08T02:04:32;96010.09;;;3.83;69.34
31775;BME280;66189;49.000;11.640;2023-04-08T02:06:33;96017.91;;;3.79;69.14
31775;BME280;66189;49.000;11.640;2023-04-08T02:08:34;96012.28;;;3.81;69.28
31775;BME280;66189;49.000;11.640;2023-04-08T02:10:35;96014.94;;;3.81;69.54
31775;BME280;66189;49.000;11.640;2023-04-08T02:12:38;96019.34;;;3.77;69.88
31775;BME280;66189;49.000;11.640;2023-04-08T02:14:43;96015.41;;;3.74;69.75
31775;BME280;66189;49.000;11.640;2023-04-08T02:16:53;96011.97;;;3.73;69.70
31775;BME280;66189;49.000;11.640;2023-04-08T02:18:57;96017.13;;;3.70;70.05
31775;BME280;66189;49.000;11.640;2023-04-08T02:21:15;96021.19;;;3.67;70.13
31775;BME280;66189;49.000;11.640;2023-04-08T02:23:19;96016.03;;;3.62;69.98
31775;BME280;66189;49.000;11.640;2023-04-08T02:25:20;96020.72;;;3.65;70.22
31775;BME280;66189;49.000;11.640;2023-04-08T02:27:22;96014.31;;;3.66;70.20
31775;BME280;66189;49.000;11.640;2023-04-08T02:29:23;96020.09;;;3.68;69.74
31775;BME280;66189;49.000;11.640;2023-04-08T02:31:27;96019.13;;;3.64;69.94
31775;BME280;66189;49.000;11.640;2023-04-08T02:33:27;96022.41;;;3.61;69.69
31775;BME280;66189;49.000;11.640;2023-04-08T02:35:28;96019.28;;;3.59;70.32
31775;BME280;66189;49.000;11.640;2023-04-08T02:37:29;96021.00;;;3.55;70.23
31775;BME280;66189;49.000;11.640;2023-04-08T02:39:32;96022.28;;;3.58;70.51
31775;BME280;66189;49.000;11.640;2023-04-08T02:41:32;96025.69;;;3.58;70.31
31775;BME280;66189;49.000;11.640;2023-04-08T02:43:32;96027.44;;;3.54;70.38
31775;BME280;66189;49.000;11.640;2023-04-08T02:45:39;96028.66;;;3.56;70.90
31775;BME280;66189;49.000;11.640;2023-04-08T02:47:40;96026.00;;;3.56;70.41
31775;BME280;66189;49.000;11.640;2023-04-08T02:49:40;96024.16;;;3.57;70.83
31775;BME280;66189;49.000;11.640;2023-04-08T02:51:41;96024.78;;;3.54;71.11
31775;BME280;66189;49.000;11.640;2023-04-08T02:53:41;96032.44;;;3.55;71.14
31775;BME280;66189;49.000;11.640;2023-04-08T02:55:41;96027.44;;;3.54;71.07
31775;BME280;66189;49.000;11.640;2023-04-08T02:57:42;96032.44;;;3.55;71.10
31775;BME280;66189;49.000;11.640;2023-04-08T02:59:42;96025.56;;;3.54;71.20
31775;BME280;66189;49.000;11.640;2023-04-08T03:01:42;96022.13;;;3.54;71.72
31775;BME280;66189;49.000;11.640;2023-04-08T03:03:42;96027.91;;;3.56;71.89
31775;BME280;66189;49.000;11.640;2023-04-08T03:05:43;96036.19;;;3.54;72.12
31775;BME280;66189;49.000;11.640;2023-04-08T03:07:43;96032.25;;;3.52;72.24
31775;BME280;66189;49.000;11.640;2023-04-08T03:09:43;96034.16;;;3.51;72.63
31775;BME280;66189;49.000;11.640;2023-04-08T03:11:43;96029.13;;;3.50;72.56
31775;BME280;66189;49.000;11.640;2023-04-08T03:13:44;96034.63;;;3.53;72.53
31775;BME280;66189;49.000;11.640;2023-04-08T03:15:45;96035.53;;;3.49;72.82
31775;BME280;66189;49.000;11.640;2023-04-08T03:17:46;96033.38;;;3.51;72.72
31775;BME280;66189;49.000;11.640;2023-04-08T03:19:46;96032.25;;;3.52;72.90
31775;BME280;66189;49.000;11.640;2023-04-08T03:21:46;96035.72;;;3.52;72.41
31775;BME280;66189;49.000;11.640;2023-04-08T03:23:46;96028.06;;;3.51;72.00
31775;BME280;66189;49.000;11.640;2023-04-08T03:25:47;96037.28;;;3.53;72.01
31775;BME280;66189;49.000;11.640;2023-04-08T03:27:47;96031.94;;;3.53;71.65
31775;BME280;66189;49.000;11.640;2023-04-08T03:29:47;96033.69;;;3.49;70.87
31775;BME280;66189;49.000;11.640;2023-04-08T03:31:48;96032.75;;;3.54;70.74
31775;BME280;66189;49.000;11.640;2023-04-08T03:33:48;96036.81;;;3.51;69.94
31775;BME280;66189;49.000;11.640;2023-04-08T03:35:48;96038.38;;;3.52;69.71
31775;BME280;66189;49.000;11.640;2023-04-08T03:37:49;96037.44;;;3.48;70.00
31775;BME280;66189;49.000;11.640;2023-04-08T03:39:49;96034.31;;;3.46;70.29
31775;BME280;66189;49.000;11.640;2023-04-08T03:41:49;96032.75;;;3.54;69.70
31775;BME280;66189;49.000;11.640;2023-04-08T03:43:50;96040.25;;;3.52;69.96
31775;BME280;66189;49.000;11.640;2023-04-08T03:45:50;96035.22;;;3.50;70.11
31775;BME280;66189;49.000;11.640;2023-04-08T03:47:50;96032.56;;;3.50;70.39
31775;BME280;66189;49.000;11.640;2023-04-08T03:49:53;96037.88;;;3.50;70.19
31775;BME280;66189;49.000;11.640;2023-04-08T03:51:54;96031.81;;;3.50;69.79
31775;BME280;66189;49.000;11.640;2023-04-08T03:53:54;96030.72;;;3.51;69.71
31775;BME280;66189;49.000;11.640;2023-04-08T03:55:55;96036.97;;;3.55;69.76
31775;BME280;66189;49.000;11.640;2023-04-08T03:57:56;96033.22;;;3.56;69.29
31775;BME280;66189;49.000;11.640;2023-04-08T03:59:56;96039.47;;;3.51;69.44
31775;BME280;66189;49.000;11.640;2023-04-08T04:01:57;96036.81;;;3.51;69.48
31775;BME280;66189;49.000;11.640;2023-04-08T04:03:57;96047.59;;;3.55;69.33
31775;BME280;66189;49.000;11.640;2023-04-08T04:05:57;96049.78;;;3.53;69.07
31775;BME280;66189;49.000;11.640;2023-04-08T04:07:57;96051.38;;;3.54;69.22
31775;BME280;66189;49.000;11.640;2023-04-08T04:09:58;96050.25;;;3.46;70.00
31775;BME280;66189;49.000;11.640;2023-04-08T04:11:58;96044.00;;;3.51;69.82
31775;BME280;66189;49.000;11.640;2023-04-08T04:13:58;96050.56;;;3.45;69.95
31775;BME280;66189;49.000;11.640;2023-04-08T04:15:58;96052.91;;;3.46;70.35
31775;BME280;66189;49.000;11.640;2023-04-08T04:17:59;96051.19;;;3.42;70.51
31775;BME280;66189;49.000;11.640;2023-04-08T04:20:02;96051.66;;;3.44;70.34
31775;BME280;66189;49.000;11.640;2023-04-08T04:22:02;96052.53;;;3.30;70.38
31775;BME280;66189;49.000;11.640;2023-04-08T04:24:02;96062.91;;;3.41;70.54
31775;BME280;66189;49.000;11.640;2023-04-08T04:26:09;96061.97;;;3.45;70.66
31775;BME280;66189;49.000;11.640;2023-04-08T04:28:10;96055.34;;;3.34;71.27
31775;BME280;66189;49.000;11.640;2023-04-08T04:30:10;96057.41;;;3.37;71.32
31775;BME280;66189;49.000;11.640;2023-04-08T04:32:14;96060.38;;;3.35;71.42
31775;BME280;66189;49.000;11.640;2023-04-08T04:34:15;96060.69;;;3.34;71.92
31775;BME280;66189;49.000;11.640;2023-04-08T04:36:15;96063.66;;;3.32;71.56
31775;BME280;66189;49.000;11.640;2023-04-08T04:38:15;96058.16;;;3.29;71.93
31775;BME280;66189;49.000;11.640;2023-04-08T04:40:16;96061.13;;;3.27;72.34
31775;BME280;66189;49.000;11.640;2023-04-08T04:42:16;96069.28;;;3.31;72.17
31775;BME280;66189;49.000;11.640;2023-04-08T04:44:16;96064.88;;;3.26;71.92
31775;BME280;66189;49.000;11.640;2023-04-08T04:46:17;96072.84;;;3.26;71.83
31775;BME280;66189;49.000;11.640;2023-04-08T04:48:17;96070.84;;;3.32;71.46
31775;BME280;66189;49.000;11.640;2023-04-08T04:50:17;96076.00;;;3.28;72.11
31775;BME280;66189;49.000;11.640;2023-04-08T04:52:18;96080.81;;;3.26;71.80
31775;BME280;66189;49.000;11.640;2023-04-08T04:54:18;96071.91;;;3.22;71.94
31775;BME280;66189;49.000;11.640;2023-04-08T04:56:18;96078.16;;;3.26;71.73
31775;BME280;66189;49.000;11.640;2023-04-08T04:58:20;96077.22;;;3.22;71.38
31775;BME280;66189;49.000;11.640;2023-04-08T05:00:20;96069.63;;;3.07;71.85
31775;BME280;66189;49.000;11.640;2023-04-08T05:02:20;96079.41;;;3.20;71.52
31775;BME280;66189;49.000;11.640;2023-04-08T05:04:21;96074.22;;;3.15;71.07
31775;BME280;66189;49.000;11.640;2023-04-08T05:06:22;96079.66;;;3.10;71.55
31775;BME280;66189;49.000;11.640;2023-04-08T05:08:22;96077.50;;;3.12;71.31
31775;BME280;66189;49.000;11.640;2023-04-08T05:10:22;96079.53;;;3.15;71.50
31775;BME280;66189;49.000;11.640;2023-04-08T05:12:23;96088.28;;;3.15;71.34
31775;BME280;66189;49.000;11.640;2023-04-08T05:14:23;96089.66;;;3.04;71.68
31775;BME280;66189;49.000;11.640;2023-04-08T05:16:23;96084.69;;;3.11;71.76
31775;BME280;66189;49.000;11.640;2023-04-08T05:18:24;96095.69;;;3.27;71.79
31775;BME280;66189;49.000;11.640;2023-04-08T05:20:24;96093.50;;;3.29;70.55
31775;BME280;66189;49.000;11.640;2023-04-08T05:22:24;96090.69;;;3.26;69.80
31775;BME280;66189;49.000;11.640;2023-04-08T05:24:24;96093.03;;;3.27;70.38
31775;BME280;66189;49.000;11.640;2023-04-08T05:26:25;96091.31;;;3.23;69.50
31775;BME280;66189;49.000;11.640;2023-04-08T05:28:25;96095.09;;;3.30;69.35
31775;BME280;66189;49.000;11.640;2023-04-08T05:30:26;96093.50;;;3.29;68.93
31775;BME280;66189;49.000;11.640;2023-04-08T05:32:26;96100.09;;;3.32;69.44
31775;BME280;66189;49.000;11.640;2023-04-08T05:34:27;96103.09;;;3.39;69.20
31775;BME280;66189;49.000;11.640;2023-04-08T05:36:27;96098.91;;;3.47;67.77
31775;BME280;66189;49.000;11.640;2023-04-08T05:38:27;96106.84;;;3.38;68.39
31775;BME280;66189;49.000;11.640;2023-04-08T05:40:27;96103.72;;;3.36;68.57
31775;BME280;66189;49.000;11.640;2023-04-08T05:42:28;96103.09;;;3.39;68.89
31775;BME280;66189;49.000;11.640;2023-04-08T05:44:28;96107.47;;;3.35;68.41
31775;BME280;66189;49.000;11.640;2023-04-08T05:46:28;96104.81;;;3.35;68.12
31775;BME280;66189;49.000;11.640;2023-04-08T05:48:29;96105.25;;;3.37;68.09
31775;BME280;66189;49.000;11.640;2023-04-08T05:50:29;96111.19;;;3.34;69.35
31775;BME280;66189;49.000;11.640;2023-04-08T05:52:30;96114.81;;;3.38;68.87
31775;BME280;66189;49.000;11.640;2023-04-08T05:54:30;96109.81;;;3.36;68.74
31775;BME280;66189;49.000;11.640;2023-04-08T05:56:30;96107.97;;;3.46;68.41
31775;BME280;66189;49.000;11.640;2023-04-08T05:58:31;96114.41;;;3.45;68.39
31775;BME280;66189;49.000;11.640;2023-04-08T06:00:31;96116.88;;;3.41;69.49
31775;BME280;66189;49.000;11.640;2023-04-08T06:02:32;96115.94;;;3.46;69.43
31775;BME280;66189;49.000;11.640;2023-04-08T06:04:34;96112.34;;;3.42;69.78
31775;BME280;66189;49.000;11.640;2023-04-08T06:06:36;96109.28;;;3.26;70.88
31775;BME280;66189;49.000;11.640;2023-04-08T06:08:36;96122.19;;;3.10;71.59
31775;BME280;66189;49.000;11.640;2023-04-08T06:10:37;96119.06;;;3.08;72.51
31775;BME280;66189;49.000;11.640;2023-04-08T06:12:37;96122.47;;;3.08;73.18
31775;BME280;66189;49.000;11.640;2023-04-08T06:14:38;96128.09;;;3.07;73.13
31775;BME280;66189;49.000;11.640;2023-04-08T06:16:38;96130.97;;;3.10;73.31
31775;BME280;66189;49.000;11.640;2023-04-08T06:18:39;96138.88;;;3.01;73.19
31775;BME280;66189;49.000;11.640;2023-04-08T06:20:39;96143.06;;;2.94;73.99
31775;BME280;66189;49.000;11.640;2023-04-08T06:22:39;96136.97;;;2.93;74.42
31775;BME280;66189;49.000;11.640;2023-04-08T06:24:39;96141.69;;;3.05;74.32
31775;BME280;66189;49.000;11.640;2023-04-08T06:26:40;96139.94;;;3.00;75.10
31775;BME280;66189;49.000;11.640;2023-04-08T06:28:40;96133.19;;;2.94;75.72
31775;BME280;66189;49.000;11.640;2023-04-08T06:30:40;96145.88;;;2.97;75.48
31775;BME280;66189;49.000;11.640;2023-04-08T06:32:41;96145.88;;;2.97;75.81
31775;BME280;66189;49.000;11.640;2023-04-08T06:34:41;96154.75;;;2.93;76.29
31775;BME280;66189;49.000;11.640;2023-04-08T06:36:43;96158.53;;;2.92;76.49
31775;BME280;66189;49.000;11.640;2023-04-08T06:38:44;96168.94;;;2.88;77.16
31775;BME280;66189;49.000;11.640;2023-04-08T06:40:44;96162.88;;;2.88;77.14
31775;BME280;66189;49.000;11.640;2023-04-08T06:42:44;96172.03;;;2.81;77.57
31775;BME280;66189;49.000;11.640;2023-04-08T06:45:05;96164.25;;;2.85;77.74
31775;BME280;66189;49.000;11.640;2023-04-08T06:47:06;96174.09;;;2.84;78.11
31775;BME280;66189;49.000;11.640;2023-04-08T06:49:07;96176.69;;;2.76;78.07
31775;BME280;66189;49.000;11.640;2023-04-08T06:51:07;96177.44;;;2.76;78.38
31775;BME280;66189;49.000;11.640;2023-04-08T06:53:07;96177.66;;;2.80;78.66
31775;BME280;66189;49.000;11.640;2023-04-08T06:55:08;96175.31;;;2.78;78.01
31775;BME280;66189;49.000;11.640;2023-04-08T06:57:08;96179.41;;;2.84;78.39
31775;BME280;66189;49.000;11.640;2023-04-08T06:59:08;96188.28;;;2.80;78.83
31775;BME280;66189;49.000;11.640;2023-04-08T07:01:09;96184.84;;;2.79;78.94
31775;BME280;66189;49.000;11.640;2023-04-08T07:03:09;96186.53;;;2.75;78.71
31775;BME280;66189;49.000;11.640;2023-04-08T07:05:12;96190.16;;;2.79;78.23
31775;BME280;66189;49.000;11.640;2023-04-08T07:07:13;96190.81;;;2.85;78.39
31775;BME280;66189;49.000;11.640;2023-04-08T07:09:13;96190.72;;;2.54;80.56
31775;BME280;66189;49.000;11.640;2023-04-08T07:11:13;96188.22;;;2.35;80.42
31775;BME280;66189;49.000;11.640;2023-04-08T07:13:13;96192.75;;;2.34;80.50
31775;BME280;66189;49.000;11.640;2023-04-08T07:15:14;96196.28;;;2.29;80.57
31775;BME280;66189;49.000;11.640;2023-04-08T07:17:14;96197.84;;;2.30;80.81
31775;BME280;66189;49.000;11.640;2023-04-08T07:19:15;96196.25;;;2.43;81.15
31775;BME280;66189;49.000;11.640;2023-04-08T07:21:15;96205.47;;;2.46;80.93
31775;BME280;66189;49.000;11.640;2023-04-08T07:23:16;96205.19;;;2.47;80.69
31775;BME280;66189;49.000;11.640;2023-04-08T07:25:16;96196.69;;;2.59;81.02
31775;BME280;66189;49.000;11.640;2023-04-08T07:27:16;96202.59;;;2.56;81.09
31775;BME280;66189;49.000;11.640;2023-04-08T07:29:17;96201.91;;;2.64;81.98
31775;BME280;66189;49.000;11.640;2023-04-08T07:31:17;96201.34;;;2.54;81.46
31775;BME280;66189;49.000;11.640;2023-04-08T07:33:17;96206.84;;;2.57;81.69
31775;BME280;66189;49.000;11.640;2023-04-08T07:35:18;96200.47;;;2.58;81.51
31775;BME280;66189;49.000;11.640;2023-04-08T07:37:23;96206.75;;;2.48;81.92
31775;BME280;66189;49.000;11.640;2023-04-08T07:39:23;96206.38;;;2.41;82.37
31775;BME280;66189;49.000;11.640;2023-04-08T07:41:23;96209.31;;;2.40;82.89
31775;BME280;66189;49.000;11.640;2023-04-08T07:43:24;96210.81;;;2.32;82.64
31775;BME280;66189;49.000;11.640;2023-04-08T07:45:24;96204.59;;;2.37;82.77
31775;BME280;66189;49.000;11.640;2023-04-08T07:47:24;96219.44;;;2.52;83.13
31775;BME280;66189;49.000;11.640;2023-04-08T07:49:25;96212.38;;;2.47;83.09
31775;BME280;66189;49.000;11.640;2023-04-08T07:51:25;96220.75;;;2.40;82.66
31775;BME280;66189;49.000;11.640;2023-04-08T07:53:26;96218.44;;;2.47;82.96
31775;BME280;66189;49.000;11.640;2023-04-08T07:55:27;96219.66;;;2.41;83.78
31775;BME280;66189;49.000;11.640;2023-04-08T07:57:27;96224.69;;;2.29;83.27
31775;BME280;66189;49.000;11.640;2023-04-08T07:59:28;96222.53;;;2.31;83.90
31775;BME280;66189;49.000;11.640;2023-04-08T08:01:28;96219.66;;;2.27;83.52
31775;BME280;66189;49.000;11.640;2023-04-08T08:03:30;96225.84;;;2.37;83.35
31775;BME280;66189;49.000;11.640;2023-04-08T08:05:30;96220.94;;;2.30;83.14
31775;BME280;66189;49.000;11.640;2023-04-08T08:07:30;96230.59;;;2.26;84.12
31775;BME280;66189;49.000;11.640;2023-04-08T08:09:31;96233.81;;;2.37;84.11
31775;BME280;66189;49.000;11.640;2023-04-08T08:11:31;96233.13;;;2.45;84.07
31775;BME280;66189;49.000;11.640;2023-04-08T08:13:32;96229.59;;;2.49;84.65
31775;BME280;66189;49.000;11.640;2023-04-08T08:15:32;96233.41;;;2.57;84.63
31775;BME280;66189;49.000;11.640;2023-04-08T08:17:33;96237.81;;;2.62;84.22
31775;BME280;66189;49.000;11.640;2023-04-08T08:19:33;96229.47;;;2.55;83.90
31775;BME280;66189;49.000;11.640;2023-04-08T08:21:36;96238.59;;;2.62;84.33
31775;BME280;66189;49.000;11.640;2023-04-08T08:23:36;96246.16;;;2.69;83.90
31775;BME280;66189;49.000;11.640;2023-04-08T08:25:37;96246.88;;;2.61;83.45
31775;BME280;66189;49.000;11.640;2023-04-08T08:27:37;96236.69;;;2.40;84.70
31775;BME280;66189;49.000;11.640;2023-04-08T08:29:40;96242.25;;;2.53;85.69
31775;BME280;66189;49.000;11.640;2023-04-08T08:31:40;96245.38;;;2.69;85.04
31775;BME280;66189;49.000;11.640;2023-04-08T08:33:40;96252.13;;;2.75;84.28
31775;BME280;66189;49.000;11.640;2023-04-08T08:35:41;96243.94;;;2.85;83.87
31775;BME280;66189;49.000;11.640;2023-04-08T08:37:41;96246.66;;;2.71;84.14
31775;BME280;66189;49.000;11.640;2023-04-08T08:39:41;96248.00;;;2.82;83.87
31775;BME280;66189;49.000;11.640;2023-04-08T08:41:42;96248.31;;;2.67;83.38
31775;BME280;66189;49.000;11.640;2023-04-08T08:43:42;96253.97;;;2.52;84.19
31775;BME280;66189;49.000;11.640;2023-04-08T08:45:44;96252.72;;;2.49;84.87
31775;BME280;66189;49.000;11.640;2023-04-08T08:47:44;96255.03;;;2.64;84.91
31775;BME280;66189;49.000;11.640;2023-04-08T08:49:44;96256.13;;;2.49;85.05
31775;BME280;66189;49.000;11.640;2023-04-08T08:51:46;96252.13;;;2.52;85.23
31775;BME280;66189;49.000;11.640;2023-04-08T08:53:48;96260.75;;;2.58;85.77
31775;BME280;66189;49.000;11.640;2023-04-08T08:55:48;96256.22;;;2.58;85.40
31775;BME280;66189;49.000;11.640;2023-04-08T08:57:49;96264.69;;;2.60;85.21
31775;BME280;66189;49.000;11.640;2023-04-08T08:59:50;96262.28;;;2.73;85.84
31775;BME280;66189;49.000;11.640;2023-04-08T09:01:50;96269.75;;;2.84;85.61
31775;BME280;66189;49.000;11.640;2023-04-08T09:06:09;96263.91;;;2.96;85.00
31775;BME280;66189;49.000;11.640;2023-04-08T09:08:21;96269.72;;;2.98;84.84
31775;BME280;66189;49.000;11.640;2023-04-08T09:10:25;96275.50;;;3.00;85.53
31775;BME280;66189;49.000;11.640;2023-04-08T09:12:27;96275.56;;;3.09;84.71
31775;BME280;66189;49.000;11.640;2023-04-08T09:14:27;96276.31;;;3.01;84.15
31775;BME280;66189;49.000;11.640;2023-04-08T09:16:29;96279.56;;;2.98;84.87
31775;BME280;66189;49.000;11.640;2023-04-08T09:18:30;96271.84;;;3.10;85.19
31775;BME280;66189;49.000;11.640;2023-04-08T09:20:30;96279.28;;;3.22;85.15
31775;BME280;66189;49.000;11.640;2023-04-08T09:22:30;96274.28;;;3.20;84.56
31775;BME280;66189;49.000;11.640;2023-04-08T09:24:31;96276.31;;;3.24;84.48
31775;BME280;66189;49.000;11.640;2023-04-08T09:26:31;96276.31;;;3.24;84.49
31775;BME280;66189;49.000;11.640;2023-04-08T09:28:31;96274.75;;;3.23;84.52
31775;BME280;66189;49.000;11.640;2023-04-08T09:30:33;96274.81;;;3.09;84.08
31775;BME280;66189;49.000;11.640;2023-04-08T09:32:46;96274.44;;;3.24;84.52
31775;BME280;66189;49.000;11.640;2023-04-08T09:34:46;96284.41;;;3.18;84.48
31775;BME280;66189;49.000;11.640;2023-04-08T09:36:47;96279.31;;;3.31;85.02
31775;BME280;66189;49.000;11.640;2023-04-08T09:38:48;96278.56;;;3.30;84.97
31775;BME280;66189;49.000;11.640;2023-04-08T09:40:48;96281.59;;;3.37;85.18
31775;BME280;66189;49.000;11.640;2023-04-08T09:42:49;96282.44;;;3.47;84.96
31775;BME280;66189;49.000;11.640;2023-04-08T09:44:53;96276.81;;;3.48;84.52
31775;BME280;66189;49.000;11.640;2023-04-08T09:46:55;96284.03;;;3.56;85.10
31775;BME280;66189;49.000;11.640;2023-04-08T09:51:03;96274.78;;;3.77;84.34
31775;BME280;66189;49.000;11.640;2023-04-08T09:53:08;96275.97;;;3.70;84.06
31775;BME280;66189;49.000;11.640;2023-04-08T09:55:12;96276.94;;;3.74;83.34
31775;BME280;66189;49.000;11.640;2023-04-08T09:57:12;96280.44;;;3.84;84.26
31775;BME280;66189;49.000;11.640;2023-04-08T09:59:16;96285.03;;;3.92;84.27
31775;BME280;66189;49.000;11.640;2023-04-08T10:01:31;96286.94;;;4.00;84.10
31775;BME280;66189;49.000;11.640;2023-04-08T10:03:36;96283.25;;;4.10;83.10
31775;BME280;66189;49.000;11.640;2023-04-08T10:05:39;96284.94;;;4.06;83.30
31775;BME280;66189;49.000;11.640;2023-04-08T10:07:40;96287.31;;;4.07;82.68
31775;BME280;66189;49.000;11.640;2023-04-08T10:09:41;96285.03;;;3.92;83.31
31775;BME280;66189;49.000;11.640;2023-04-08T10:11:42;96293.97;;;3.96;83.43
31775;BME280;66189;49.000;11.640;2023-04-08T10:13:42;96288.53;;;4.01;83.33
31775;BME280;66189;49.000;11.640;2023-04-08T10:15:43;96287.91;;;4.04;83.47
31775;BME280;66189;49.000;11.640;2023-04-08T10:17:46;96286.53;;;4.07;84.11
31775;BME280;66189;49.000;11.640;2023-04-08T10:19:46;96286.94;;;4.00;83.26
31775;BME280;66189;49.000;11.640;2023-04-08T10:21:47;96292.16;;;4.05;83.55
31775;BME280;66189;49.000;11.640;2023-04-08T10:23:52;96292.84;;;4.20;83.61
31775;BME280;66189;49.000;11.640;2023-04-08T10:25:53;96296.75;;;4.22;83.38
31775;BME280;66189;49.000;11.640;2023-04-08T10:27:54;96294.41;;;4.30;84.05
31775;BME280;66189;49.000;11.640;2023-04-08T10:29:54;96294.00;;;4.36;83.91
31775;BME280;66189;49.000;11.640;2023-04-08T10:31:55;96301.22;;;4.44;83.48
31775;BME280;66189;49.000;11.640;2023-04-08T10:33:56;96300.44;;;4.44;83.31
31775;BME280;66189;49.000;11.640;2023-04-08T10:36:14;96291.88;;;4.56;83.23
31775;BME280;66189;49.000;11.640;2023-04-08T10:38:15;96292.78;;;4.51;83.19
31775;BME280;66189;49.000;11.640;2023-04-08T10:40:19;96291.88;;;4.56;83.41
31775;BME280;66189;49.000;11.640;2023-04-08T10:42:25;96299.97;;;4.51;83.97
31775;BME280;66189;49.000;11.640;2023-04-08T10:44:25;96297.50;;;4.54;83.09
31775;BME280;66189;49.000;11.640;2023-04-08T10:46:26;96294.22;;;4.57;83.08
31775;BME280;66189;49.000;11.640;2023-04-08T10:48:27;96292.94;;;4.55;83.35